Time;durP1;ratioP1;P1;durP2;ratioP2;P2;SDS_P1;SDS_P2;PMS_P1;PMS_P2;Temp;Humidity;BMP_temperature;BMP_pressure;BME280_temperature;BME280_humidity;BME280_pressure;Samples;Min_cycle;Max_cycle;Signal;HPM_P1;HPM_P2
2022/11/05 00:09:35;;;;;;;;;;;;;;;7.63;92.93;101472.38;5044646;28;19931;-58
2022/11/05 00:17:39;;;;;;;;;;;;;;;7.58;92.50;101469.31;5042825;28;19963;-58
2022/11/05 00:20:04;;;;;;;;;;;;;;;7.55;92.80;101478.34;5044050;28;19917;-57
2022/11/05 00:25:16;;;;;;;;;;;;;;;7.44;92.82;101481.91;5042625;28;19923;-57
2022/11/05 00:27:43;;;;;;;;;;;;;;;7.39;93.04;101481.47;5044825;28;20315;-58
2022/11/05 00:30:08;;;;;;;;;;;;;;;7.32;92.92;101484.81;5044329;28;19990;-58
2022/11/05 00:32:33;;;;;;;;;;;;;;;7.24;92.80;101485.47;5042351;28;20623;-57
2022/11/05 00:34:59;;;;;;;;;;;;;;;7.18;92.92;101488.63;5044012;28;19917;-57
2022/11/05 00:37:26;;;;;;;;;;;;;;;7.15;92.85;101496.81;5042899;28;19936;-59
2022/11/05 00:39:51;;;;;;;;;;;;;;;7.14;92.67;101492.50;5048437;28;19929;-57
2022/11/05 00:45:01;;;;;;;;;;;;;;;7.10;92.54;101489.28;5045286;28;19924;-58
2022/11/05 00:50:10;;;;;;;;;;;;;;;7.11;91.92;101500.69;5041608;28;19947;-58
2022/11/05 00:55:19;;;;;;;;;;;;;;;6.95;92.07;101500.34;5047481;28;20397;-57
2022/11/05 00:57:44;;;;;;;;;;;;;;;6.88;92.39;101507.94;5047147;28;20380;-58
2022/11/05 01:00:10;;;;;;;;;;;;;;;6.80;92.35;101505.94;5046961;28;19923;-58
2022/11/05 01:02:35;;;;;;;;;;;;;;;6.74;92.49;101509.13;5047767;28;20397;-57
2022/11/05 01:05:01;;;;;;;;;;;;;;;6.70;92.40;101512.16;5047129;28;19945;-58
2022/11/05 01:07:26;;;;;;;;;;;;;;;6.64;92.56;101520.56;5047966;28;20007;-57
2022/11/05 01:09:51;;;;;;;;;;;;;;;6.59;92.39;101522.75;5044525;28;20530;-58
2022/11/05 01:12:16;;;;;;;;;;;;;;;6.51;92.56;101523.41;5043956;28;20007;-58
2022/11/05 01:14:41;;;;;;;;;;;;;;;6.38;92.45;101523.59;5044352;28;19944;-57
2022/11/05 01:17:06;;;;;;;;;;;;;;;6.19;91.85;101528.69;5045898;28;19924;-57
2022/11/05 01:19:32;;;;;;;;;;;;;;;6.10;91.73;101525.00;5046847;28;20032;-57
2022/11/05 01:21:57;;;;;;;;;;;;;;;6.01;91.78;101535.44;5048894;28;20525;-58
2022/11/05 01:24:22;;;;;;;;;;;;;;;5.90;91.64;101534.50;5048328;28;19921;-57
2022/11/05 01:26:47;;;;;;;;;;;;;;;5.87;91.88;101539.16;5049737;28;19943;-57
2022/11/05 01:29:13;;;;;;;;;;;;;;;5.86;91.78;101540.13;5045404;28;19920;-58
2022/11/05 01:31:38;;;;;;;;;;;;;;;5.86;91.96;101551.50;5047373;28;19917;-57
2022/11/05 01:34:03;;;;;;;;;;;;;;;5.90;92.27;101544.22;5045020;28;20019;-57
2022/11/05 01:36:28;;;;;;;;;;;;;;;5.92;92.15;101542.31;5048942;28;19970;-57
2022/11/05 01:38:53;;;;;;;;;;;;;;;5.93;91.88;101541.34;5049484;28;20019;-57
2022/11/05 01:41:18;;;;;;;;;;;;;;;5.96;92.14;101542.88;5045870;28;21587;-57
2022/11/05 01:43:49;;;;;;;;;;;;;;;6.03;92.69;101546.69;5048856;28;20276;-57
2022/11/05 01:46:20;;;;;;;;;;;;;;;6.09;93.30;101548.88;5043611;28;20395;-57
2022/11/05 01:48:47;;;;;;;;;;;;;;;6.15;93.47;101558.91;5045225;28;19924;-57
2022/11/05 01:51:15;;;;;;;;;;;;;;;6.20;93.79;101556.72;5042505;28;19952;-57
2022/11/05 01:53:43;;;;;;;;;;;;;;;6.22;93.95;101554.81;5045117;28;20147;-57
2022/11/05 01:56:11;;;;;;;;;;;;;;;6.22;94.49;101545.09;5050485;28;19994;-57
2022/11/05 01:58:45;;;;;;;;;;;;;;;6.21;94.39;101547.84;5045082;28;19924;-57
2022/11/05 02:01:10;;;;;;;;;;;;;;;6.16;94.70;101544.75;5043999;28;19936;-57
2022/11/05 02:03:36;;;;;;;;;;;;;;;6.14;94.72;101536.97;5047961;28;19921;-57
2022/11/05 02:06:01;;;;;;;;;;;;;;;6.13;95.12;101537.94;5045303;28;20350;-58
2022/11/05 02:08:35;;;;;;;;;;;;;;;6.11;95.31;101533.75;5047725;28;19948;-57
2022/11/05 02:11:01;;;;;;;;;;;;;;;6.08;95.39;101523.47;5045111;28;20003;-58
2022/11/05 02:13:26;;;;;;;;;;;;;;;6.04;95.72;101530.75;5046142;28;20315;-57
2022/11/05 02:16:05;;;;;;;;;;;;;;;6.01;95.84;101530.16;5044427;28;19924;-57
2022/11/05 02:18:37;;;;;;;;;;;;;;;5.97;95.97;101529.59;5046445;28;19932;-57
2022/11/05 02:21:05;;;;;;;;;;;;;;;5.93;95.78;101533.44;5049180;28;20003;-57
2022/11/05 02:23:44;;;;;;;;;;;;;;;5.89;96.06;101542.50;5048063;28;19916;-57
2022/11/05 02:26:15;;;;;;;;;;;;;;;5.85;96.10;101535.81;5051894;28;19924;-57
2022/11/05 02:28:49;;;;;;;;;;;;;;;5.84;96.36;101537.63;5050489;28;19935;-57
2022/11/05 02:31:33;;;;;;;;;;;;;;;5.84;96.26;101539.41;5047918;28;19972;-57
2022/11/05 02:33:58;;;;;;;;;;;;;;;5.83;96.28;101533.31;5049730;28;19978;-57
2022/11/05 02:36:23;;;;;;;;;;;;;;;5.82;96.13;101536.91;5046867;28;19924;-58
2022/11/05 02:39:09;;;;;;;;;;;;;;;5.81;96.30;101532.59;5049162;28;19924;-58
2022/11/05 02:41:53;;;;;;;;;;;;;;;5.79;96.37;101534.53;5049030;28;20013;-56
2022/11/05 02:44:33;;;;;;;;;;;;;;;5.77;96.23;101541.69;5044698;28;19917;-57
2022/11/05 02:47:07;;;;;;;;;;;;;;;5.73;96.27;101529.72;5045587;28;20070;-57
2022/11/05 02:49:44;;;;;;;;;;;;;;;5.68;96.40;101526.59;5048148;28;19924;-57
2022/11/05 02:52:15;;;;;;;;;;;;;;;5.64;96.36;101529.63;5035809;28;20428;-57
2022/11/05 02:54:43;;;;;;;;;;;;;;;5.62;96.49;101532.38;5049574;28;19954;-57
2022/11/05 02:57:08;;;;;;;;;;;;;;;5.61;96.57;101538.59;5048901;28;20032;-59
2022/11/05 02:59:33;;;;;;;;;;;;;;;5.60;96.51;101532.50;5048679;28;20007;-57
2022/11/05 03:01:59;;;;;;;;;;;;;;;5.58;96.48;101529.16;5045525;28;19974;-58
2022/11/05 03:04:25;;;;;;;;;;;;;;;5.56;96.61;101525.81;5048517;28;20004;-58
2022/11/05 03:07:11;;;;;;;;;;;;;;;5.51;96.51;101519.22;5049243;28;20003;-57
2022/11/05 03:09:55;;;;;;;;;;;;;;;5.47;96.84;101518.59;5040321;28;19916;-57
2022/11/05 03:12:20;;;;;;;;;;;;;;;5.47;96.53;101530.94;5042197;28;20007;-57
2022/11/05 03:14:48;;;;;;;;;;;;;;;5.45;96.85;101528.41;5047063;28;20004;-57
2022/11/05 03:17:39;;;;;;;;;;;;;;;5.45;96.72;101524.94;5044948;28;19924;-57
2022/11/05 03:20:20;;;;;;;;;;;;;;;5.40;96.71;101529.75;5048412;28;19924;-57
2022/11/05 03:22:59;;;;;;;;;;;;;;;5.40;96.45;101529.75;5047665;28;20347;-56
2022/11/05 03:25:27;;;;;;;;;;;;;;;5.41;97.04;101531.41;5052047;28;19963;-57
2022/11/05 03:27:56;;;;;;;;;;;;;;;5.41;96.76;101520.88;5051605;28;19912;-57
2022/11/05 03:30:23;;;;;;;;;;;;;;;5.43;96.96;101529.50;5049873;28;19917;-58
2022/11/05 03:32:52;;;;;;;;;;;;;;;5.44;97.06;101533.81;5047180;28;20050;-57
2022/11/05 03:35:21;;;;;;;;;;;;;;;5.45;96.87;101533.69;5047558;28;19924;-58
2022/11/05 03:37:48;;;;;;;;;;;;;;;5.44;96.75;101526.75;5045037;28;19916;-56
2022/11/05 03:40:15;;;;;;;;;;;;;;;5.45;96.71;101528.41;5048293;28;19913;-57
2022/11/05 03:42:42;;;;;;;;;;;;;;;5.44;97.06;101533.81;5048376;28;20308;-57
2022/11/05 03:45:10;;;;;;;;;;;;;;;5.44;96.79;101526.75;5049038;28;20482;-56
2022/11/05 03:47:37;;;;;;;;;;;;;;;5.42;96.68;101533.09;5047384;28;19979;-58
2022/11/05 03:50:06;;;;;;;;;;;;;;;5.42;96.89;101533.94;5045824;28;19921;-57
2022/11/05 03:52:35;;;;;;;;;;;;;;;5.41;96.90;101536.69;5048718;28;19924;-58
2022/11/05 03:55:00;;;;;;;;;;;;;;;5.36;96.69;101537.06;5049374;28;20381;-57
2022/11/05 03:57:28;;;;;;;;;;;;;;;5.34;96.99;101544.22;5050614;28;19924;-57
2022/11/05 03:59:53;;;;;;;;;;;;;;;5.33;97.02;101544.34;5047722;28;19925;-57
2022/11/05 04:02:20;;;;;;;;;;;;;;;5.31;97.21;101541.84;5047071;28;20304;-57
2022/11/05 04:04:45;;;;;;;;;;;;;;;5.32;97.22;101547.94;5047881;28;19913;-57
2022/11/05 04:15:23;;;;;;;;;;;;;;;5.26;96.99;101555.38;5048295;28;20050;-57
2022/11/05 04:17:48;;;;;;;;;;;;;;;5.25;97.30;101558.97;5050183;28;20350;-56
2022/11/05 04:25:55;;;;;;;;;;;;;;;5.11;96.90;101566.22;5048631;28;20288;-57
2022/11/05 04:30:17;;;;;;;;;;;;;;;5.05;97.07;101557.00;5051764;28;19913;-58
2022/11/05 04:31:05;;;;;;;;;;;;;;;5.00;97.32;101559.16;5051579;28;20403;-58
2022/11/05 04:33:30;;;;;;;;;;;;;;;4.98;97.23;101561.06;5055682;28;19913;-56
2022/11/05 04:35:55;;;;;;;;;;;;;;;4.98;97.64;101568.97;5050922;28;19957;-57
2022/11/05 04:38:21;;;;;;;;;;;;;;;4.97;97.88;101567.31;5044571;28;20381;-57
2022/11/05 04:40:46;;;;;;;;;;;;;;;4.95;97.41;101562.16;5045365;28;20011;-57
2022/11/05 04:43:16;;;;;;;;;;;;;;;4.95;97.70;101564.78;5049324;28;19917;-57
2022/11/05 04:45:42;;;;;;;;;;;;;;;4.95;98.08;101561.31;5049769;28;20315;-57
2022/11/05 04:48:07;;;;;;;;;;;;;;;4.96;98.07;101563.81;5039141;28;19924;-57
2022/11/05 04:50:32;;;;;;;;;;;;;;;4.95;98.07;101564.78;5049401;28;20356;-57
2022/11/05 04:52:57;;;;;;;;;;;;;;;4.95;98.12;101564.78;5054472;28;19917;-56
2022/11/05 04:55:23;;;;;;;;;;;;;;;4.95;98.10;101571.84;5047683;28;19927;-57
2022/11/05 04:57:49;;;;;;;;;;;;;;;4.96;98.59;101576.16;5045190;28;19920;-57
2022/11/05 05:00:15;;;;;;;;;;;;;;;4.96;98.46;101574.34;5049704;28;20023;-57
2022/11/05 05:02:40;;;;;;;;;;;;;;;4.96;98.69;101576.16;5045678;28;20007;-57
2022/11/05 05:05:05;;;;;;;;;;;;;;;4.96;98.87;101574.34;5048056;28;19916;-57
2022/11/05 05:07:32;;;;;;;;;;;;;;;4.96;99.12;101579.63;5046525;28;19932;-57
2022/11/05 05:09:57;;;;;;;;;;;;;;;4.97;98.68;101580.47;5045881;28;20028;-58
2022/11/05 05:12:22;;;;;;;;;;;;;;;4.96;98.72;101584.03;5048512;28;20044;-57
2022/11/05 05:14:48;;;;;;;;;;;;;;;4.94;98.90;101586.78;5044820;28;19917;-58
2022/11/05 05:17:13;;;;;;;;;;;;;;;4.95;99.01;101588.47;5047019;28;19924;-57
2022/11/05 05:22:22;;;;;;;;;;;;;;;4.95;98.81;101598.16;5046835;28;19994;-57
2022/11/05 05:24:47;;;;;;;;;;;;;;;4.94;99.02;101599.13;5048065;28;20335;-57
2022/11/05 05:27:12;;;;;;;;;;;;;;;4.94;98.75;101593.84;5047717;28;20376;-58
2022/11/05 05:29:37;;;;;;;;;;;;;;;4.95;98.92;101596.38;5048206;28;19923;-57
2022/11/05 05:32:03;;;;;;;;;;;;;;;4.95;98.56;101598.16;5043068;28;19979;-58
2022/11/05 05:34:28;;;;;;;;;;;;;;;4.95;98.52;101592.91;5049723;28;19913;-58
2022/11/05 05:36:53;;;;;;;;;;;;;;;4.95;98.53;101598.16;5049296;28;19920;-57
2022/11/05 05:39:18;;;;;;;;;;;;;;;4.95;98.60;101606.91;5045605;28;20444;-57
2022/11/05 05:41:43;;;;;;;;;;;;;;;4.96;98.48;101621.72;5051375;28;19932;-57
2022/11/05 05:44:09;;;;;;;;;;;;;;;4.98;98.47;101605.81;5055110;28;20442;-57
2022/11/05 05:46:34;;;;;;;;;;;;;;;4.96;98.04;101600.69;5050455;28;19920;-57
2022/11/05 05:48:59;;;;;;;;;;;;;;;4.91;98.00;101597.53;5048106;28;19960;-57
2022/11/05 05:51:24;;;;;;;;;;;;;;;4.92;97.80;101611.56;5049312;28;20058;-57
2022/11/05 05:53:49;;;;;;;;;;;;;;;4.91;97.52;101607.22;5048986;28;19968;-57
2022/11/05 05:56:18;;;;;;;;;;;;;;;4.88;97.43;101610.91;5040113;28;19924;-58
2022/11/05 05:58:43;;;;;;;;;;;;;;;4.82;97.47;101602.66;5049607;28;19921;-57
2022/11/05 06:01:10;;;;;;;;;;;;;;;4.79;97.65;101608.16;5047868;28;20364;-57
2022/11/05 06:03:35;;;;;;;;;;;;;;;4.76;97.65;101609.22;5047161;28;19948;-56
2022/11/05 06:06:01;;;;;;;;;;;;;;;4.75;97.93;101614.59;5045117;28;19967;-58
2022/11/05 06:08:27;;;;;;;;;;;;;;;4.73;98.05;101619.97;5046025;28;19921;-58
2022/11/05 06:10:52;;;;;;;;;;;;;;;4.71;97.95;101607.88;5046643;28;20423;-57
2022/11/05 06:13:17;;;;;;;;;;;;;;;4.69;97.94;101613.25;5043083;28;19970;-57
2022/11/05 06:15:42;;;;;;;;;;;;;;;4.65;97.95;101615.28;5048222;28;19951;-57
2022/11/05 06:18:08;;;;;;;;;;;;;;;4.63;98.44;101614.56;5046079;28;19921;-57
2022/11/05 06:20:33;;;;;;;;;;;;;;;4.61;98.27;101610.34;5043707;28;19963;-58
2022/11/05 06:22:58;;;;;;;;;;;;;;;4.58;98.28;101608.78;5047733;28;19931;-57
2022/11/05 06:25:24;;;;;;;;;;;;;;;4.58;98.49;101611.41;5043713;28;20328;-56
2022/11/05 06:27:49;;;;;;;;;;;;;;;4.58;98.63;101615.81;5046231;28;19970;-57
2022/11/05 06:30:15;;;;;;;;;;;;;;;4.57;98.48;101620.25;5050876;28;19923;-57
2022/11/05 06:32:40;;;;;;;;;;;;;;;4.57;98.69;101614.97;5042970;28;20011;-57
2022/11/05 06:35:05;;;;;;;;;;;;;;;4.56;98.82;101612.47;5050337;28;20346;-57
2022/11/05 06:37:32;;;;;;;;;;;;;;;4.55;98.80;101623.94;5048457;28;20270;-57
2022/11/05 06:39:58;;;;;;;;;;;;;;;4.56;98.88;101618.56;5057049;28;19921;-57
2022/11/05 06:42:23;;;;;;;;;;;;;;;4.57;98.83;101622.88;5049232;28;19919;-57
2022/11/05 06:44:48;;;;;;;;;;;;;;;4.58;99.00;101623.72;5056476;28;19939;-57
2022/11/05 06:47:14;;;;;;;;;;;;;;;4.56;98.99;101613.31;5049383;28;19917;-56
2022/11/05 06:49:39;;;;;;;;;;;;;;;4.55;99.03;101613.41;5052160;28;20380;-57
2022/11/05 06:52:04;;;;;;;;;;;;;;;4.54;98.77;101611.75;5046651;28;20017;-57
2022/11/05 06:54:29;;;;;;;;;;;;;;;4.52;98.87;101618.91;5051396;28;20376;-58
2022/11/05 06:56:54;;;;;;;;;;;;;;;4.51;98.83;101623.34;5049472;28;19920;-57
2022/11/05 06:59:19;;;;;;;;;;;;;;;4.52;98.72;101627.63;5047389;28;19971;-57
2022/11/05 07:01:45;;;;;;;;;;;;;;;4.52;98.85;101632.91;5046033;28;19923;-56
2022/11/05 07:04:10;;;;;;;;;;;;;;;4.52;98.96;101637.31;5049592;28;19916;-57
2022/11/05 07:06:36;;;;;;;;;;;;;;;4.53;98.74;101637.22;5045025;28;20011;-57
2022/11/05 07:09:01;;;;;;;;;;;;;;;4.53;98.74;101642.47;5045797;28;19917;-56
2022/11/05 07:11:26;;;;;;;;;;;;;;;4.55;98.79;101637.09;5051510;28;19926;-57
2022/11/05 07:13:51;;;;;;;;;;;;;;;4.54;99.04;101638.88;5043295;28;19917;-57
2022/11/05 07:16:16;;;;;;;;;;;;;;;4.56;98.78;101636.97;5051202;28;20459;-58
2022/11/05 07:18:41;;;;;;;;;;;;;;;4.59;98.95;101643.81;5046752;28;19917;-57
2022/11/05 07:21:07;;;;;;;;;;;;;;;4.62;99.17;101646.22;5047439;28;19970;-57
2022/11/05 07:23:32;;;;;;;;;;;;;;;4.66;99.07;101645.06;5047250;28;19912;-57
2022/11/05 07:25:58;;;;;;;;;;;;;;;4.70;99.17;101645.66;5049413;28;19912;-57
2022/11/05 07:28:23;;;;;;;;;;;;;;;4.73;99.33;101651.53;5049547;28;20003;-58
2022/11/05 07:30:48;;;;;;;;;;;;;;;4.81;99.09;101656.22;5048233;28;19995;-57
2022/11/05 07:33:13;;;;;;;;;;;;;;;4.85;99.11;101653.25;5048524;28;20004;-57
2022/11/05 07:35:38;;;;;;;;;;;;;;;4.89;99.24;101651.22;5044979;28;19913;-57
2022/11/05 07:38:04;;;;;;;;;;;;;;;4.93;99.33;101650.06;5049007;28;19924;-57
2022/11/05 07:40:29;;;;;;;;;;;;;;;5.00;99.32;101658.34;5047556;28;19921;-57
2022/11/05 07:42:55;;;;;;;;;;;;;;;5.06;99.09;101661.34;5049830;28;19989;-56
2022/11/05 07:45:21;;;;;;;;;;;;;;;5.12;98.95;101671.41;5048789;28;20007;-57
2022/11/05 07:47:46;;;;;;;;;;;;;;;5.20;98.84;101674.34;5047360;28;20356;-57
2022/11/05 07:50:11;;;;;;;;;;;;;;;5.27;98.76;101666.81;5048692;28;19913;-58
2022/11/05 07:52:37;;;;;;;;;;;;;;;5.36;98.77;101665.25;5053474;28;19916;-57
2022/11/05 07:55:02;;;;;;;;;;;;;;;5.43;98.68;101663.84;5049215;28;20347;-58
2022/11/05 07:57:27;;;;;;;;;;;;;;;5.50;98.48;101667.69;5049688;28;20005;-56
2022/11/05 07:59:53;;;;;;;;;;;;;;;5.55;98.46;101671.66;5046840;28;19925;-57
2022/11/05 08:02:18;;;;;;;;;;;;;;;5.60;98.21;101663.41;5047484;28;20304;-57
2022/11/05 08:04:43;;;;;;;;;;;;;;;5.64;98.08;101664.84;5044073;28;20008;-58
2022/11/05 08:07:08;;;;;;;;;;;;;;;5.71;97.85;101667.81;5042821;28;20304;-57
2022/11/05 08:09:33;;;;;;;;;;;;;;;5.80;97.88;101664.50;5045588;28;19920;-57
2022/11/05 08:11:59;;;;;;;;;;;;;;;5.86;97.69;101667.50;5046148;28;19956;-58
2022/11/05 08:14:24;;;;;;;;;;;;;;;5.91;97.69;101667.16;5044687;28;19921;-57
2022/11/05 08:16:49;;;;;;;;;;;;;;;5.96;97.64;101670.25;5048123;28;19947;-57
2022/11/05 08:19:14;;;;;;;;;;;;;;;5.98;97.32;101662.22;5045599;28;19928;-57
2022/11/05 08:21:39;;;;;;;;;;;;;;;6.04;96.97;101667.03;5048347;28;19919;-57
2022/11/05 08:24:05;;;;;;;;;;;;;;;6.09;97.06;101667.53;5048259;28;20403;-57
2022/11/05 08:26:30;;;;;;;;;;;;;;;6.12;97.03;101669.91;5046342;28;19913;-58
2022/11/05 08:28:55;;;;;;;;;;;;;;;6.16;96.71;101661.63;5044989;28;20347;-58
2022/11/05 08:31:20;;;;;;;;;;;;;;;6.20;96.90;101662.22;5038037;28;20495;-57
2022/11/05 08:33:45;;;;;;;;;;;;;;;6.24;96.73;101671.56;5042051;28;19913;-57
2022/11/05 08:36:11;;;;;;;;;;;;;;;6.26;96.50;101667.00;5051874;28;19912;-58
2022/11/05 08:38:36;;;;;;;;;;;;;;;6.32;96.73;101671.78;5047549;28;19917;-57
2022/11/05 08:41:01;;;;;;;;;;;;;;;6.38;96.47;101675.75;5061908;28;20446;-57
2022/11/05 08:43:26;;;;;;;;;;;;;;;6.42;96.68;101669.25;5043900;28;19921;-57
2022/11/05 08:45:52;;;;;;;;;;;;;;;6.50;96.54;101672.94;5050863;28;19913;-57
2022/11/05 08:48:18;;;;;;;;;;;;;;;6.55;96.35;101674.38;5050179;28;19921;-57
2022/11/05 08:50:44;;;;;;;;;;;;;;;6.65;96.25;101675.31;5045517;28;19912;-57
2022/11/05 08:53:09;;;;;;;;;;;;;;;6.75;96.44;101670.97;5041328;28;19994;-57
2022/11/05 08:55:35;;;;;;;;;;;;;;;6.81;96.29;101667.81;5048182;28;19920;-57
2022/11/05 08:58:02;;;;;;;;;;;;;;;6.89;96.20;101669.81;5046899;28;19967;-58
2022/11/05 09:00:28;;;;;;;;;;;;;;;6.95;95.99;101675.47;5042665;28;19913;-56
2022/11/05 09:02:54;;;;;;;;;;;;;;;7.01;95.76;101674.94;5046312;28;20015;-57
2022/11/05 09:05:19;;;;;;;;;;;;;;;7.09;95.43;101674.31;5049781;28;20008;-57
2022/11/05 09:07:45;;;;;;;;;;;;;;;7.14;95.51;101674.75;5050663;28;19917;-56
2022/11/05 09:10:10;;;;;;;;;;;;;;;7.21;95.28;101677.72;5044793;28;20419;-57
2022/11/05 09:12:35;;;;;;;;;;;;;;;7.28;95.12;101678.91;5046138;28;19917;-58
2022/11/05 09:15:01;;;;;;;;;;;;;;;7.34;95.03;101681.84;5046120;28;19924;-58
2022/11/05 09:17:26;;;;;;;;;;;;;;;7.42;94.38;101673.28;5047739;28;19970;-57
2022/11/05 09:19:51;;;;;;;;;;;;;;;7.50;93.95;101676.09;5050320;28;19925;-58
2022/11/05 09:22:16;;;;;;;;;;;;;;;7.62;93.58;101676.88;5051785;28;19978;-58
2022/11/05 09:24:42;;;;;;;;;;;;;;;7.70;93.16;101674.41;5049473;28;20399;-58
2022/11/05 09:27:09;;;;;;;;;;;;;;;7.81;92.92;101676.16;5046058;28;19917;-58
2022/11/05 09:29:34;;;;;;;;;;;;;;;7.92;92.85;101673.41;5041872;28;19953;-57
2022/11/05 09:31:59;;;;;;;;;;;;;;;8.03;93.40;101673.31;5043566;28;19959;-57
2022/11/05 09:34:24;;;;;;;;;;;;;;;8.16;92.95;101667.78;5043091;28;19925;-58
2022/11/05 09:36:49;;;;;;;;;;;;;;;8.22;92.09;101677.84;5046883;28;19920;-57
2022/11/05 09:39:15;;;;;;;;;;;;;;;8.28;91.86;101682.59;5044056;28;19929;-57
2022/11/05 09:41:42;;;;;;;;;;;;;;;8.33;91.74;101685.66;5047122;28;20295;-57
2022/11/05 09:44:21;;;;;;;;;;;;;;;8.42;91.14;101684.06;5051019;28;20467;-57
2022/11/05 09:46:49;;;;;;;;;;;;;;;8.51;91.28;101686.72;5050629;28;20421;-59
2022/11/05 09:49:29;;;;;;;;;;;;;;;8.60;90.93;101683.25;5052189;28;19916;-58
2022/11/05 09:51:55;;;;;;;;;;;;;;;8.69;90.28;101687.75;5052390;28;19955;-57
2022/11/05 09:54:22;;;;;;;;;;;;;;;8.79;90.12;101690.38;5053227;28;19923;-58
2022/11/05 09:56:48;;;;;;;;;;;;;;;8.89;90.37;101699.16;5051085;28;20011;-58
2022/11/05 09:59:16;;;;;;;;;;;;;;;8.98;90.25;101698.34;5050441;28;20011;-57
2022/11/05 10:01:42;;;;;;;;;;;;;;;9.06;89.27;101697.66;5049948;28;19979;-57
2022/11/05 10:04:27;;;;;;;;;;;;;;;9.15;88.99;101703.91;5048091;28;19917;-57
2022/11/05 10:06:55;;;;;;;;;;;;;;;9.23;88.76;101702.22;5049352;28;19913;-57
2022/11/05 10:09:25;;;;;;;;;;;;;;;9.23;87.96;101709.34;5048838;28;20041;-57
2022/11/05 10:11:53;;;;;;;;;;;;;;;9.24;87.10;101716.31;5046770;28;20011;-59
2022/11/05 10:14:21;;;;;;;;;;;;;;;9.23;86.50;101712.00;5046657;28;20363;-57
2022/11/05 10:16:57;;;;;;;;;;;;;;;9.23;86.28;101718.13;5044642;28;20023;-57
2022/11/05 10:19:25;;;;;;;;;;;;;;;9.24;86.03;101721.63;5049534;28;19927;-57
2022/11/05 10:22:01;;;;;;;;;;;;;;;9.27;86.16;101721.38;5047863;28;19917;-57
2022/11/05 10:24:26;;;;;;;;;;;;;;;9.31;86.66;101722.75;5051137;28;19928;-58
2022/11/05 10:26:53;;;;;;;;;;;;;;;9.36;86.73;101724.97;5048238;28;19951;-57
2022/11/05 10:29:24;;;;;;;;;;;;;;;9.36;85.78;101733.75;5048369;28;19921;-57
2022/11/05 10:31:51;;;;;;;;;;;;;;;9.38;86.17;101729.16;5048781;28;19935;-57
2022/11/05 10:34:17;;;;;;;;;;;;;;;9.39;85.74;101733.47;5043199;28;19917;-57
2022/11/05 10:36:43;;;;;;;;;;;;;;;9.39;85.62;101736.13;5049510;28;19913;-57
2022/11/05 10:39:08;;;;;;;;;;;;;;;9.38;84.75;101736.28;5051064;28;19936;-58
2022/11/05 10:41:43;;;;;;;;;;;;;;;9.35;84.37;101737.41;5042941;28;19996;-58
2022/11/05 10:44:18;;;;;;;;;;;;;;;9.33;84.87;101739.34;5040081;28;19979;-57
2022/11/05 10:47:02;;;;;;;;;;;;;;;9.35;84.95;101739.22;5047460;28;20007;-57
2022/11/05 10:49:42;;;;;;;;;;;;;;;9.37;85.36;101726.66;5045541;28;20560;-57
2022/11/05 10:52:17;;;;;;;;;;;;;;;9.38;85.66;101721.19;5050278;28;21011;-57
2022/11/05 10:54:43;;;;;;;;;;;;;;;9.39;85.07;101714.09;5043484;28;19917;-58
2022/11/05 10:57:26;;;;;;;;;;;;;;;9.40;85.45;101713.94;5048438;28;19959;-57
2022/11/05 10:59:51;;;;;;;;;;;;;;;9.45;85.76;101717.00;5042893;28;19924;-56
2022/11/05 11:02:22;;;;;;;;;;;;;;;9.47;85.36;101715.03;5052898;28;19912;-57
2022/11/05 11:04:55;;;;;;;;;;;;;;;9.52;85.91;101728.72;5052991;28;19913;-57
2022/11/05 11:07:23;;;;;;;;;;;;;;;9.54;85.56;101724.13;5043913;28;19928;-57
2022/11/05 11:09:48;;;;;;;;;;;;;;;9.60;85.81;101728.03;5045921;28;19913;-57
2022/11/05 11:12:15;;;;;;;;;;;;;;;9.60;85.71;101728.03;5056120;28;20487;-57
2022/11/05 11:14:41;;;;;;;;;;;;;;;9.58;85.42;101720.22;5054712;28;19936;-59
2022/11/05 11:17:25;;;;;;;;;;;;;;;9.62;85.00;101721.59;5049177;28;19917;-58
2022/11/05 11:19:52;;;;;;;;;;;;;;;9.64;85.16;101721.44;5047180;28;19924;-57
2022/11/05 11:22:18;;;;;;;;;;;;;;;9.63;84.70;101719.78;5049875;28;19913;-56
2022/11/05 11:24:46;;;;;;;;;;;;;;;9.63;84.58;101714.47;5049369;28;19940;-57
2022/11/05 11:27:24;;;;;;;;;;;;;;;9.61;84.34;101713.78;5049406;28;19963;-57
2022/11/05 11:29:59;;;;;;;;;;;;;;;9.65;84.32;101709.03;5044718;28;19948;-57
2022/11/05 11:32:33;;;;;;;;;;;;;;;9.68;84.52;101698.13;5042820;28;19917;-57
2022/11/05 11:34:59;;;;;;;;;;;;;;;9.72;84.44;101702.16;5053177;28;19916;-57
2022/11/05 11:37:27;;;;;;;;;;;;;;;9.77;84.20;101703.38;5047397;28;19952;-57
2022/11/05 11:39:56;;;;;;;;;;;;;;;9.90;84.16;101706.56;5045719;28;19982;-58
2022/11/05 11:42:29;;;;;;;;;;;;;;;10.17;83.90;101704.94;5047173;28;19913;-57
2022/11/05 11:44:55;;;;;;;;;;;;;;;10.40;83.98;101708.88;5040312;28;19928;-57
2022/11/05 11:47:21;;;;;;;;;;;;;;;10.57;82.76;101714.41;5048892;28;19987;-57
2022/11/05 11:49:50;;;;;;;;;;;;;;;10.68;82.36;101706.22;5051199;28;19963;-58
2022/11/05 11:52:30;;;;;;;;;;;;;;;10.89;81.76;101708.59;5044310;28;19917;-57
2022/11/05 11:55:10;;;;;;;;;;;;;;;11.01;80.45;101702.06;5051455;28;19924;-57
2022/11/05 11:58:02;;;;;;;;;;;;;;;11.12;80.20;101700.00;5045594;28;19924;-57
2022/11/05 12:00:28;;;;;;;;;;;;;;;11.31;79.18;101698.19;5046483;28;19940;-57
2022/11/05 12:02:55;;;;;;;;;;;;;;;11.47;78.89;101696.47;5048750;28;20019;-58
2022/11/05 12:05:29;;;;;;;;;;;;;;;11.68;78.78;101696.09;5050526;28;19913;-57
2022/11/05 12:07:56;;;;;;;;;;;;;;;11.83;77.27;101693.72;5051316;28;20501;-57
2022/11/05 12:10:27;;;;;;;;;;;;;;;11.86;76.52;101696.09;5043016;28;19955;-57
2022/11/05 12:13:06;;;;;;;;;;;;;;;11.80;75.20;101696.69;5049210;28;19912;-57
2022/11/05 12:15:43;;;;;;;;;;;;;;;11.64;74.68;101683.28;5053843;28;20441;-57
2022/11/05 12:18:18;;;;;;;;;;;;;;;11.52;74.74;101689.84;5047751;28;20360;-57
2022/11/05 12:20:46;;;;;;;;;;;;;;;11.47;74.84;101701.78;5047926;28;19920;-56
2022/11/05 12:23:31;;;;;;;;;;;;;;;11.45;74.25;101695.78;5044227;28;19928;-57
2022/11/05 12:26:01;;;;;;;;;;;;;;;11.33;74.20;101699.69;5048724;28;19917;-57
2022/11/05 12:28:45;;;;;;;;;;;;;;;11.39;74.60;101688.44;5045720;28;19959;-57
2022/11/05 12:31:10;;;;;;;;;;;;;;;11.46;74.58;101686.81;5044149;28;20380;-58
2022/11/05 12:34:02;;;;;;;;;;;;;;;11.54;74.14;101677.22;5048690;28;20011;-58
2022/11/05 12:36:55;;;;;;;;;;;;;;;11.59;73.83;101677.59;5049326;28;19920;-56
2022/11/05 12:39:27;;;;;;;;;;;;;;;11.61;73.83;101676.44;5046057;28;19921;-58
2022/11/05 12:41:58;;;;;;;;;;;;;;;11.64;73.92;101677.97;5047194;28;19916;-57
2022/11/05 12:44:35;;;;;;;;;;;;;;;11.50;73.44;101674.03;5035200;28;19924;-57
2022/11/05 12:47:19;;;;;;;;;;;;;;;11.32;74.00;101663.44;5045766;28;19916;-59
2022/11/05 12:49:50;;;;;;;;;;;;;;;11.28;74.23;101667.41;5047210;28;20517;-58
2022/11/05 12:52:32;;;;;;;;;;;;;;;11.26;74.94;101672.03;5046560;28;19928;-57
2022/11/05 12:55:02;;;;;;;;;;;;;;;11.24;74.65;101666.03;5046360;28;20383;-58
2022/11/05 12:57:28;;;;;;;;;;;;;;;11.18;74.60;101659.50;5052379;28;19913;-59
2022/11/05 13:00:12;;;;;;;;;;;;;;;11.14;74.71;101658.16;5050434;28;19932;-57
2022/11/05 13:02:48;;;;;;;;;;;;;;;11.11;74.85;101655.81;5048605;28;19916;-58
2022/11/05 13:05:13;;;;;;;;;;;;;;;11.10;74.85;101654.13;5046205;28;20000;-56
2022/11/05 13:07:42;;;;;;;;;;;;;;;11.08;74.68;101648.16;5052298;28;20047;-57
2022/11/05 13:10:26;;;;;;;;;;;;;;;11.07;74.71;101642.97;5048294;28;19917;-57
2022/11/05 13:12:57;;;;;;;;;;;;;;;11.10;74.92;101648.00;5051787;28;20008;-57
2022/11/05 13:15:32;;;;;;;;;;;;;;;11.13;75.06;101647.69;5045153;28;19931;-58
2022/11/05 13:17:59;;;;;;;;;;;;;;;11.20;75.12;101632.78;5050563;28;20376;-57
2022/11/05 13:20:29;;;;;;;;;;;;;;;11.26;75.15;101639.28;5047963;28;19935;-57
2022/11/05 13:23:02;;;;;;;;;;;;;;;11.27;74.45;101631.16;5051269;28;20056;-57
2022/11/05 13:25:28;;;;;;;;;;;;;;;11.24;74.10;101634.13;5046782;28;19956;-57
2022/11/05 13:27:53;;;;;;;;;;;;;;;11.20;74.25;101627.44;5050111;28;19967;-57
2022/11/05 13:30:30;;;;;;;;;;;;;;;11.20;74.41;101627.44;5050944;28;19916;-57
2022/11/05 13:32:58;;;;;;;;;;;;;;;11.18;73.91;101618.78;5056384;28;19972;-57